Arboledas, Argentina
Current Conditions -  °F | °C
As of 4:00 PM on Tuesday 21 Oct 2014 (Local Time) from SAEZ Reporting Station
Clear Clear  
Wind Chill: 28°   Ceiling: Unl
Heat Index: 28°   Visibility: 4mi
Dew Point: 12°   Wind: 12mph
Humidity: 37%   Direction: 330°NNW
Pressure: 30"   Gusts: NA
Location:  36.49°S, 61.45°W
Report Text: SAEZ 211900Z 33010KT 290V360 6000 NSC 28/12 Q1016
Loading
Personal Weather Stations






























Interactive Weather Map
Tropical Storm Tracking
New forecast layout! Learn more

10-Day Weather Forecast

Advertisements
Track Severe Weather on mobile